Quines, Argentina
Current Conditions -  °F | °C
As of 3:00 PM on Thursday 29 Jan 2015 (Local Time) from SAOC Reporting Station
Scattered Clouds Scattered Clouds  
Wind Chill: 77°   Ceiling: Unl
Heat Index: 79°   Visibility: 6mi
Dew Point: 61°   Wind: 21mph
Humidity: 57%   Direction: 360°N
Pressure: 30.06"   Gusts: NA
Location:  32.22°S, 65.8°W
Report Text: SAOC 291800Z 36018KT 9999 SCT025 SCT03025/16 Q1018
Loading
Personal Weather Stations






























Interactive Weather Map New forecast layout! Learn more

10-Day Weather Forecast

Advertisements
Track Severe Weather on mobile